sensor_id;sensor_type;location;lat;lon;timestamp;P1;durP1;ratioP1;P2;durP2;ratioP2
11238;SDS011;5677;48.488;13.436;2024-03-06T00:00:14;7.30;;;4.73;;
11238;SDS011;5677;48.488;13.436;2024-03-06T00:02:41;6.60;;;4.30;;
11238;SDS011;5677;48.488;13.436;2024-03-06T00:05:08;5.77;;;4.37;;
11238;SDS011;5677;48.488;13.436;2024-03-06T00:07:34;6.07;;;4.20;;
11238;SDS011;5677;48.488;13.436;2024-03-06T00:10:01;4.70;;;4.07;;
11238;SDS011;5677;48.488;13.436;2024-03-06T00:12:30;7.43;;;4.57;;
11238;SDS011;5677;48.488;13.436;2024-03-06T00:14:58;6.33;;;4.30;;
11238;SDS011;5677;48.488;13.436;2024-03-06T00:17:24;6.37;;;4.13;;
11238;SDS011;5677;48.488;13.436;2024-03-06T00:19:52;4.47;;;3.90;;
11238;SDS011;5677;48.488;13.436;2024-03-06T00:22:18;4.83;;;4.10;;
11238;SDS011;5677;48.488;13.436;2024-03-06T00:24:45;5.10;;;4.13;;
11238;SDS011;5677;48.488;13.436;2024-03-06T00:27:13;5.30;;;4.10;;
11238;SDS011;5677;48.488;13.436;2024-03-06T00:29:40;5.80;;;4.57;;
11238;SDS011;5677;48.488;13.436;2024-03-06T00:32:08;6.97;;;4.70;;
11238;SDS011;5677;48.488;13.436;2024-03-06T00:34:34;4.80;;;3.80;;
11238;SDS011;5677;48.488;13.436;2024-03-06T00:37:01;6.63;;;4.80;;
11238;SDS011;5677;48.488;13.436;2024-03-06T00:39:28;6.17;;;4.30;;
11238;SDS011;5677;48.488;13.436;2024-03-06T00:41:55;4.30;;;3.87;;
11238;SDS011;5677;48.488;13.436;2024-03-06T00:44:22;6.53;;;4.13;;
11238;SDS011;5677;48.488;13.436;2024-03-06T00:46:48;9.37;;;4.87;;
11238;SDS011;5677;48.488;13.436;2024-03-06T00:49:16;4.83;;;3.97;;
11238;SDS011;5677;48.488;13.436;2024-03-06T00:51:43;5.70;;;4.20;;
11238;SDS011;5677;48.488;13.436;2024-03-06T00:54:10;7.47;;;4.70;;
11238;SDS011;5677;48.488;13.436;2024-03-06T00:56:37;5.27;;;4.17;;
11238;SDS011;5677;48.488;13.436;2024-03-06T00:59:04;5.87;;;4.00;;
11238;SDS011;5677;48.488;13.436;2024-03-06T01:01:31;6.43;;;4.50;;
11238;SDS011;5677;48.488;13.436;2024-03-06T01:03:58;7.13;;;4.70;;
11238;SDS011;5677;48.488;13.436;2024-03-06T01:06:26;5.37;;;4.10;;
11238;SDS011;5677;48.488;13.436;2024-03-06T01:08:53;6.13;;;4.70;;
11238;SDS011;5677;48.488;13.436;2024-03-06T01:11:21;5.43;;;3.97;;
11238;SDS011;5677;48.488;13.436;2024-03-06T01:13:48;5.17;;;3.77;;
11238;SDS011;5677;48.488;13.436;2024-03-06T01:16:15;6.93;;;4.83;;
11238;SDS011;5677;48.488;13.436;2024-03-06T01:18:42;6.20;;;4.20;;
11238;SDS011;5677;48.488;13.436;2024-03-06T01:21:08;4.27;;;3.57;;
11238;SDS011;5677;48.488;13.436;2024-03-06T01:23:37;6.40;;;4.43;;
11238;SDS011;5677;48.488;13.436;2024-03-06T01:26:04;5.73;;;4.33;;
11238;SDS011;5677;48.488;13.436;2024-03-06T01:28:31;5.67;;;4.20;;
11238;SDS011;5677;48.488;13.436;2024-03-06T01:30:58;5.00;;;4.07;;
11238;SDS011;5677;48.488;13.436;2024-03-06T01:33:24;6.33;;;4.10;;
11238;SDS011;5677;48.488;13.436;2024-03-06T01:35:51;5.97;;;4.43;;
11238;SDS011;5677;48.488;13.436;2024-03-06T01:38:18;6.17;;;4.27;;
11238;SDS011;5677;48.488;13.436;2024-03-06T01:40:46;6.63;;;4.30;;
11238;SDS011;5677;48.488;13.436;2024-03-06T01:43:17;5.77;;;4.30;;
11238;SDS011;5677;48.488;13.436;2024-03-06T01:45:45;5.47;;;4.50;;
11238;SDS011;5677;48.488;13.436;2024-03-06T01:48:13;4.97;;;4.10;;
11238;SDS011;5677;48.488;13.436;2024-03-06T01:50:40;5.20;;;4.13;;
11238;SDS011;5677;48.488;13.436;2024-03-06T01:53:07;6.47;;;4.33;;
11238;SDS011;5677;48.488;13.436;2024-03-06T01:55:34;6.00;;;4.17;;
11238;SDS011;5677;48.488;13.436;2024-03-06T01:58:03;5.03;;;4.00;;
11238;SDS011;5677;48.488;13.436;2024-03-06T02:00:31;7.03;;;4.67;;
11238;SDS011;5677;48.488;13.436;2024-03-06T02:02:58;5.03;;;3.90;;
11238;SDS011;5677;48.488;13.436;2024-03-06T02:05:26;5.30;;;3.80;;
11238;SDS011;5677;48.488;13.436;2024-03-06T02:07:56;5.23;;;4.43;;
11238;SDS011;5677;48.488;13.436;2024-03-06T02:10:23;4.67;;;3.90;;
11238;SDS011;5677;48.488;13.436;2024-03-06T02:12:51;6.20;;;4.20;;
11238;SDS011;5677;48.488;13.436;2024-03-06T02:15:19;5.97;;;4.23;;
11238;SDS011;5677;48.488;13.436;2024-03-06T02:17:46;4.77;;;3.93;;
11238;SDS011;5677;48.488;13.436;2024-03-06T02:20:13;5.10;;;4.10;;
11238;SDS011;5677;48.488;13.436;2024-03-06T02:22:42;4.87;;;4.03;;
11238;SDS011;5677;48.488;13.436;2024-03-06T02:25:09;7.40;;;4.27;;
11238;SDS011;5677;48.488;13.436;2024-03-06T02:27:37;5.70;;;4.33;;
11238;SDS011;5677;48.488;13.436;2024-03-06T02:30:04;5.73;;;4.03;;
11238;SDS011;5677;48.488;13.436;2024-03-06T02:32:31;6.87;;;4.47;;
11238;SDS011;5677;48.488;13.436;2024-03-06T02:34:58;5.27;;;4.37;;
11238;SDS011;5677;48.488;13.436;2024-03-06T02:37:27;6.27;;;4.10;;
11238;SDS011;5677;48.488;13.436;2024-03-06T02:39:55;4.97;;;4.00;;
11238;SDS011;5677;48.488;13.436;2024-03-06T02:42:22;5.23;;;3.73;;
11238;SDS011;5677;48.488;13.436;2024-03-06T02:44:49;5.57;;;4.27;;
11238;SDS011;5677;48.488;13.436;2024-03-06T02:47:15;5.33;;;4.03;;
11238;SDS011;5677;48.488;13.436;2024-03-06T02:49:42;4.53;;;4.03;;
11238;SDS011;5677;48.488;13.436;2024-03-06T02:52:09;5.63;;;4.30;;
11238;SDS011;5677;48.488;13.436;2024-03-06T02:54:35;6.67;;;4.50;;
11238;SDS011;5677;48.488;13.436;2024-03-06T02:57:04;6.63;;;4.40;;
11238;SDS011;5677;48.488;13.436;2024-03-06T02:59:30;4.87;;;3.87;;
11238;SDS011;5677;48.488;13.436;2024-03-06T03:01:57;5.80;;;4.33;;
11238;SDS011;5677;48.488;13.436;2024-03-06T03:04:25;6.97;;;3.80;;
11238;SDS011;5677;48.488;13.436;2024-03-06T03:06:52;5.70;;;3.97;;
11238;SDS011;5677;48.488;13.436;2024-03-06T03:09:18;5.53;;;4.33;;
11238;SDS011;5677;48.488;13.436;2024-03-06T03:11:45;4.40;;;3.73;;
11238;SDS011;5677;48.488;13.436;2024-03-06T03:14:14;4.87;;;3.90;;
11238;SDS011;5677;48.488;13.436;2024-03-06T03:16:41;6.90;;;3.90;;
11238;SDS011;5677;48.488;13.436;2024-03-06T03:19:08;6.00;;;4.27;;
11238;SDS011;5677;48.488;13.436;2024-03-06T03:21:34;5.00;;;3.90;;
11238;SDS011;5677;48.488;13.436;2024-03-06T03:24:01;6.10;;;3.90;;
11238;SDS011;5677;48.488;13.436;2024-03-06T03:26:28;4.97;;;3.80;;
11238;SDS011;5677;48.488;13.436;2024-03-06T03:28:54;8.90;;;4.20;;
11238;SDS011;5677;48.488;13.436;2024-03-06T03:31:23;5.10;;;3.43;;
11238;SDS011;5677;48.488;13.436;2024-03-06T03:33:49;4.10;;;3.57;;
11238;SDS011;5677;48.488;13.436;2024-03-06T03:36:16;4.93;;;3.67;;
11238;SDS011;5677;48.488;13.436;2024-03-06T03:38:43;6.33;;;4.07;;
11238;SDS011;5677;48.488;13.436;2024-03-06T03:41:10;4.77;;;3.67;;
11238;SDS011;5677;48.488;13.436;2024-03-06T03:43:38;5.93;;;4.30;;
11238;SDS011;5677;48.488;13.436;2024-03-06T03:46:05;5.60;;;3.93;;
11238;SDS011;5677;48.488;13.436;2024-03-06T03:48:34;6.00;;;4.47;;
11238;SDS011;5677;48.488;13.436;2024-03-06T03:51:01;6.00;;;4.13;;
11238;SDS011;5677;48.488;13.436;2024-03-06T03:53:29;5.23;;;4.00;;
11238;SDS011;5677;48.488;13.436;2024-03-06T03:55:56;5.50;;;3.80;;
11238;SDS011;5677;48.488;13.436;2024-03-06T03:58:22;4.53;;;3.93;;
11238;SDS011;5677;48.488;13.436;2024-03-06T04:00:49;6.23;;;3.77;;
11238;SDS011;5677;48.488;13.436;2024-03-06T04:03:17;5.50;;;4.23;;
11238;SDS011;5677;48.488;13.436;2024-03-06T04:05:46;5.33;;;3.90;;
11238;SDS011;5677;48.488;13.436;2024-03-06T04:08:13;6.17;;;4.17;;
11238;SDS011;5677;48.488;13.436;2024-03-06T04:10:41;5.33;;;4.10;;
11238;SDS011;5677;48.488;13.436;2024-03-06T04:13:09;4.57;;;3.83;;
11238;SDS011;5677;48.488;13.436;2024-03-06T04:15:36;6.03;;;4.17;;
11238;SDS011;5677;48.488;13.436;2024-03-06T04:18:03;5.37;;;3.80;;
11238;SDS011;5677;48.488;13.436;2024-03-06T04:20:30;5.20;;;3.83;;
11238;SDS011;5677;48.488;13.436;2024-03-06T04:22:58;5.20;;;3.67;;
11238;SDS011;5677;48.488;13.436;2024-03-06T04:25:25;5.73;;;4.03;;
11238;SDS011;5677;48.488;13.436;2024-03-06T04:27:51;5.23;;;3.70;;
11238;SDS011;5677;48.488;13.436;2024-03-06T04:30:18;4.80;;;4.00;;
11238;SDS011;5677;48.488;13.436;2024-03-06T04:32:46;5.43;;;3.93;;
11238;SDS011;5677;48.488;13.436;2024-03-06T04:35:12;5.73;;;4.17;;
11238;SDS011;5677;48.488;13.436;2024-03-06T04:37:39;5.93;;;4.23;;
11238;SDS011;5677;48.488;13.436;2024-03-06T04:40:08;6.67;;;3.67;;
11238;SDS011;5677;48.488;13.436;2024-03-06T04:42:35;5.37;;;4.40;;
11238;SDS011;5677;48.488;13.436;2024-03-06T04:45:02;4.80;;;3.80;;
11238;SDS011;5677;48.488;13.436;2024-03-06T04:47:29;5.03;;;4.00;;
11238;SDS011;5677;48.488;13.436;2024-03-06T04:49:56;6.37;;;3.87;;
11238;SDS011;5677;48.488;13.436;2024-03-06T04:52:23;5.00;;;4.27;;
11238;SDS011;5677;48.488;13.436;2024-03-06T04:54:50;6.00;;;3.83;;
11238;SDS011;5677;48.488;13.436;2024-03-06T04:57:18;4.93;;;3.83;;
11238;SDS011;5677;48.488;13.436;2024-03-06T04:59:45;4.17;;;3.50;;
11238;SDS011;5677;48.488;13.436;2024-03-06T05:02:12;5.40;;;4.13;;
11238;SDS011;5677;48.488;13.436;2024-03-06T05:04:38;4.63;;;3.50;;
11238;SDS011;5677;48.488;13.436;2024-03-06T05:07:05;5.83;;;4.20;;
11238;SDS011;5677;48.488;13.436;2024-03-06T05:09:32;6.10;;;3.73;;
11238;SDS011;5677;48.488;13.436;2024-03-06T05:12:00;5.47;;;3.70;;
11238;SDS011;5677;48.488;13.436;2024-03-06T05:14:28;4.87;;;3.90;;
11238;SDS011;5677;48.488;13.436;2024-03-06T05:16:54;5.93;;;4.07;;
11238;SDS011;5677;48.488;13.436;2024-03-06T05:19:21;4.77;;;3.80;;
11238;SDS011;5677;48.488;13.436;2024-03-06T05:21:48;8.03;;;3.83;;
11238;SDS011;5677;48.488;13.436;2024-03-06T05:24:15;5.57;;;3.80;;
11238;SDS011;5677;48.488;13.436;2024-03-06T05:26:41;5.00;;;4.03;;
11238;SDS011;5677;48.488;13.436;2024-03-06T05:29:08;4.47;;;3.87;;
11238;SDS011;5677;48.488;13.436;2024-03-06T05:31:36;5.40;;;4.10;;
11238;SDS011;5677;48.488;13.436;2024-03-06T05:34:03;5.00;;;3.60;;
11238;SDS011;5677;48.488;13.436;2024-03-06T05:36:30;5.97;;;3.90;;
11238;SDS011;5677;48.488;13.436;2024-03-06T05:38:57;6.07;;;3.70;;
11238;SDS011;5677;48.488;13.436;2024-03-06T05:41:23;4.80;;;3.67;;
11238;SDS011;5677;48.488;13.436;2024-03-06T05:43:50;4.03;;;3.47;;
11238;SDS011;5677;48.488;13.436;2024-03-06T05:46:17;4.80;;;3.70;;
11238;SDS011;5677;48.488;13.436;2024-03-06T05:48:46;5.17;;;3.97;;
11238;SDS011;5677;48.488;13.436;2024-03-06T05:51:12;4.40;;;3.37;;
11238;SDS011;5677;48.488;13.436;2024-03-06T05:53:39;5.00;;;3.27;;
11238;SDS011;5677;48.488;13.436;2024-03-06T05:56:07;5.17;;;3.87;;
11238;SDS011;5677;48.488;13.436;2024-03-06T05:58:34;6.00;;;4.07;;
11238;SDS011;5677;48.488;13.436;2024-03-06T06:01:01;5.37;;;4.13;;
11238;SDS011;5677;48.488;13.436;2024-03-06T06:03:28;4.73;;;3.57;;
11238;SDS011;5677;48.488;13.436;2024-03-06T06:05:56;5.17;;;3.90;;
11238;SDS011;5677;48.488;13.436;2024-03-06T06:08:23;4.37;;;3.70;;
11238;SDS011;5677;48.488;13.436;2024-03-06T06:10:50;5.00;;;3.60;;
11238;SDS011;5677;48.488;13.436;2024-03-06T06:13:18;4.80;;;3.90;;
11238;SDS011;5677;48.488;13.436;2024-03-06T06:15:45;4.33;;;3.60;;
11238;SDS011;5677;48.488;13.436;2024-03-06T06:18:12;4.47;;;3.67;;
11238;SDS011;5677;48.488;13.436;2024-03-06T06:20:40;5.43;;;3.50;;
11238;SDS011;5677;48.488;13.436;2024-03-06T06:23:08;4.10;;;3.70;;
11238;SDS011;5677;48.488;13.436;2024-03-06T06:25:35;4.40;;;3.67;;
11238;SDS011;5677;48.488;13.436;2024-03-06T06:28:01;3.90;;;3.37;;
11238;SDS011;5677;48.488;13.436;2024-03-06T06:30:28;4.40;;;3.67;;
11238;SDS011;5677;48.488;13.436;2024-03-06T06:32:55;4.33;;;3.57;;
11238;SDS011;5677;48.488;13.436;2024-03-06T06:35:22;3.90;;;3.00;;
11238;SDS011;5677;48.488;13.436;2024-03-06T06:37:50;5.03;;;3.13;;
11238;SDS011;5677;48.488;13.436;2024-03-06T06:40:18;4.33;;;3.37;;
11238;SDS011;5677;48.488;13.436;2024-03-06T06:42:45;5.10;;;4.13;;
11238;SDS011;5677;48.488;13.436;2024-03-06T06:45:14;4.70;;;3.70;;
11238;SDS011;5677;48.488;13.436;2024-03-06T06:47:41;4.70;;;3.63;;
11238;SDS011;5677;48.488;13.436;2024-03-06T06:50:08;5.80;;;3.90;;
11238;SDS011;5677;48.488;13.436;2024-03-06T06:52:36;3.83;;;3.13;;
11238;SDS011;5677;48.488;13.436;2024-03-06T06:55:03;5.27;;;3.37;;
11238;SDS011;5677;48.488;13.436;2024-03-06T06:57:32;4.87;;;3.90;;
11238;SDS011;5677;48.488;13.436;2024-03-06T06:59:59;5.57;;;3.83;;
11238;SDS011;5677;48.488;13.436;2024-03-06T07:02:27;5.27;;;4.00;;
11238;SDS011;5677;48.488;13.436;2024-03-06T07:04:53;4.10;;;3.60;;
11238;SDS011;5677;48.488;13.436;2024-03-06T07:07:20;6.07;;;4.63;;
11238;SDS011;5677;48.488;13.436;2024-03-06T07:09:47;4.73;;;3.43;;
11238;SDS011;5677;48.488;13.436;2024-03-06T07:12:14;4.83;;;3.53;;
11238;SDS011;5677;48.488;13.436;2024-03-06T07:14:43;4.60;;;3.97;;
11238;SDS011;5677;48.488;13.436;2024-03-06T07:17:09;4.63;;;4.00;;
11238;SDS011;5677;48.488;13.436;2024-03-06T07:19:36;4.00;;;3.40;;
11238;SDS011;5677;48.488;13.436;2024-03-06T07:22:04;4.20;;;3.50;;
11238;SDS011;5677;48.488;13.436;2024-03-06T07:24:31;4.43;;;3.40;;
11238;SDS011;5677;48.488;13.436;2024-03-06T07:26:58;3.93;;;3.50;;
11238;SDS011;5677;48.488;13.436;2024-03-06T07:29:26;5.37;;;3.37;;
11238;SDS011;5677;48.488;13.436;2024-03-06T07:31:54;3.80;;;3.13;;
11238;SDS011;5677;48.488;13.436;2024-03-06T07:34:21;4.07;;;3.53;;
11238;SDS011;5677;48.488;13.436;2024-03-06T07:36:48;4.27;;;3.57;;
11238;SDS011;5677;48.488;13.436;2024-03-06T07:39:15;4.27;;;3.47;;
11238;SDS011;5677;48.488;13.436;2024-03-06T07:41:42;10.70;;;3.53;;
11238;SDS011;5677;48.488;13.436;2024-03-06T07:44:09;4.80;;;3.57;;
11238;SDS011;5677;48.488;13.436;2024-03-06T07:46:35;5.87;;;3.67;;
11238;SDS011;5677;48.488;13.436;2024-03-06T07:49:04;4.47;;;3.20;;
11238;SDS011;5677;48.488;13.436;2024-03-06T07:51:31;4.03;;;3.40;;
11238;SDS011;5677;48.488;13.436;2024-03-06T07:53:57;3.50;;;3.17;;
11238;SDS011;5677;48.488;13.436;2024-03-06T07:56:25;5.07;;;3.23;;
11238;SDS011;5677;48.488;13.436;2024-03-06T07:58:53;3.50;;;3.00;;
11238;SDS011;5677;48.488;13.436;2024-03-06T08:01:20;3.53;;;3.23;;
11238;SDS011;5677;48.488;13.436;2024-03-06T08:03:47;3.10;;;2.80;;
11238;SDS011;5677;48.488;13.436;2024-03-06T08:06:15;4.37;;;3.13;;
11238;SDS011;5677;48.488;13.436;2024-03-06T08:08:42;3.40;;;3.10;;
11238;SDS011;5677;48.488;13.436;2024-03-06T08:11:10;3.87;;;3.30;;
11238;SDS011;5677;48.488;13.436;2024-03-06T08:13:37;4.50;;;3.40;;
11238;SDS011;5677;48.488;13.436;2024-03-06T08:16:04;4.83;;;2.93;;
11238;SDS011;5677;48.488;13.436;2024-03-06T08:18:32;4.20;;;3.33;;
11238;SDS011;5677;48.488;13.436;2024-03-06T08:21:00;5.20;;;3.03;;
11238;SDS011;5677;48.488;13.436;2024-03-06T08:23:28;6.47;;;3.63;;
11238;SDS011;5677;48.488;13.436;2024-03-06T08:25:55;5.00;;;3.50;;
11238;SDS011;5677;48.488;13.436;2024-03-06T08:28:22;3.73;;;2.73;;
11238;SDS011;5677;48.488;13.436;2024-03-06T08:30:49;4.20;;;3.00;;
11238;SDS011;5677;48.488;13.436;2024-03-06T08:33:17;3.70;;;2.90;;
11238;SDS011;5677;48.488;13.436;2024-03-06T08:35:46;4.63;;;3.30;;
11238;SDS011;5677;48.488;13.436;2024-03-06T08:38:12;7.93;;;3.77;;
11238;SDS011;5677;48.488;13.436;2024-03-06T08:40:40;3.70;;;3.27;;
11238;SDS011;5677;48.488;13.436;2024-03-06T08:43:10;12.03;;;5.40;;
11238;SDS011;5677;48.488;13.436;2024-03-06T08:45:37;11.43;;;5.40;;
11238;SDS011;5677;48.488;13.436;2024-03-06T08:48:04;8.33;;;5.63;;
11238;SDS011;5677;48.488;13.436;2024-03-06T08:50:31;11.67;;;5.20;;
11238;SDS011;5677;48.488;13.436;2024-03-06T08:52:58;9.43;;;5.27;;
11238;SDS011;5677;48.488;13.436;2024-03-06T08:55:27;10.37;;;5.40;;
11238;SDS011;5677;48.488;13.436;2024-03-06T08:57:55;8.60;;;5.90;;
11238;SDS011;5677;48.488;13.436;2024-03-06T09:00:22;9.70;;;5.33;;
11238;SDS011;5677;48.488;13.436;2024-03-06T09:02:51;9.37;;;6.17;;
11238;SDS011;5677;48.488;13.436;2024-03-06T09:05:18;10.00;;;6.97;;
11238;SDS011;5677;48.488;13.436;2024-03-06T09:07:47;11.00;;;6.37;;
11238;SDS011;5677;48.488;13.436;2024-03-06T09:10:13;11.63;;;6.37;;
11238;SDS011;5677;48.488;13.436;2024-03-06T09:12:40;14.10;;;7.60;;
11238;SDS011;5677;48.488;13.436;2024-03-06T09:15:08;15.10;;;9.13;;
11238;SDS011;5677;48.488;13.436;2024-03-06T09:17:36;12.43;;;7.97;;
11238;SDS011;5677;48.488;13.436;2024-03-06T09:20:03;11.63;;;6.97;;
11238;SDS011;5677;48.488;13.436;2024-03-06T09:22:35;8.10;;;6.13;;
11238;SDS011;5677;48.488;13.436;2024-03-06T09:25:02;10.30;;;6.30;;
11238;SDS011;5677;48.488;13.436;2024-03-06T09:27:29;12.03;;;7.07;;
11238;SDS011;5677;48.488;13.436;2024-03-06T09:29:56;10.03;;;6.30;;
11238;SDS011;5677;48.488;13.436;2024-03-06T09:32:24;8.13;;;6.17;;
11238;SDS011;5677;48.488;13.436;2024-03-06T09:34:51;10.23;;;5.73;;
11238;SDS011;5677;48.488;13.436;2024-03-06T09:37:18;9.80;;;5.93;;
11238;SDS011;5677;48.488;13.436;2024-03-06T09:39:45;11.77;;;6.87;;
11238;SDS011;5677;48.488;13.436;2024-03-06T09:42:12;15.37;;;7.00;;
11238;SDS011;5677;48.488;13.436;2024-03-06T09:44:39;11.50;;;7.63;;
11238;SDS011;5677;48.488;13.436;2024-03-06T09:47:06;11.33;;;6.20;;
11238;SDS011;5677;48.488;13.436;2024-03-06T09:49:36;11.63;;;6.07;;
11238;SDS011;5677;48.488;13.436;2024-03-06T09:52:03;9.40;;;5.93;;
11238;SDS011;5677;48.488;13.436;2024-03-06T09:54:30;7.47;;;5.87;;
11238;SDS011;5677;48.488;13.436;2024-03-06T09:56:57;9.73;;;5.80;;
11238;SDS011;5677;48.488;13.436;2024-03-06T09:59:24;6.93;;;5.37;;
11238;SDS011;5677;48.488;13.436;2024-03-06T10:01:53;10.03;;;5.90;;
11238;SDS011;5677;48.488;13.436;2024-03-06T10:04:21;7.70;;;5.20;;
11238;SDS011;5677;48.488;13.436;2024-03-06T10:06:51;8.27;;;5.37;;
11238;SDS011;5677;48.488;13.436;2024-03-06T10:09:21;12.50;;;5.67;;
11238;SDS011;5677;48.488;13.436;2024-03-06T10:11:48;6.13;;;4.70;;
11238;SDS011;5677;48.488;13.436;2024-03-06T10:14:18;8.87;;;5.60;;
11238;SDS011;5677;48.488;13.436;2024-03-06T10:16:54;7.93;;;5.00;;
11238;SDS011;5677;48.488;13.436;2024-03-06T10:19:22;5.93;;;4.90;;
11238;SDS011;5677;48.488;13.436;2024-03-06T10:21:51;7.23;;;4.93;;
11238;SDS011;5677;48.488;13.436;2024-03-06T10:24:18;9.30;;;5.03;;
11238;SDS011;5677;48.488;13.436;2024-03-06T10:26:46;6.23;;;4.80;;
11238;SDS011;5677;48.488;13.436;2024-03-06T10:29:16;6.60;;;5.00;;
11238;SDS011;5677;48.488;13.436;2024-03-06T10:31:51;6.43;;;4.77;;
11238;SDS011;5677;48.488;13.436;2024-03-06T10:34:19;7.37;;;4.57;;
11238;SDS011;5677;48.488;13.436;2024-03-06T10:36:47;5.77;;;4.30;;
11238;SDS011;5677;48.488;13.436;2024-03-06T10:39:21;7.87;;;4.83;;
11238;SDS011;5677;48.488;13.436;2024-03-06T10:41:50;5.63;;;4.67;;
11238;SDS011;5677;48.488;13.436;2024-03-06T10:44:19;5.90;;;4.50;;
11238;SDS011;5677;48.488;13.436;2024-03-06T10:46:48;6.53;;;4.67;;
11238;SDS011;5677;48.488;13.436;2024-03-06T10:49:20;7.23;;;4.57;;
11238;SDS011;5677;48.488;13.436;2024-03-06T10:51:48;6.10;;;4.63;;
11238;SDS011;5677;48.488;13.436;2024-03-06T10:54:16;6.73;;;4.63;;
11238;SDS011;5677;48.488;13.436;2024-03-06T10:56:45;7.03;;;5.20;;
11238;SDS011;5677;48.488;13.436;2024-03-06T10:59:12;5.60;;;5.00;;
11238;SDS011;5677;48.488;13.436;2024-03-06T11:01:41;8.57;;;4.83;;
11238;SDS011;5677;48.488;13.436;2024-03-06T11:04:10;7.13;;;4.77;;
11238;SDS011;5677;48.488;13.436;2024-03-06T11:06:40;5.93;;;4.53;;
11238;SDS011;5677;48.488;13.436;2024-03-06T11:09:07;5.77;;;4.30;;
11238;SDS011;5677;48.488;13.436;2024-03-06T11:11:48;6.73;;;4.63;;
11238;SDS011;5677;48.488;13.436;2024-03-06T11:14:16;7.13;;;4.33;;
11238;SDS011;5677;48.488;13.436;2024-03-06T11:16:59;5.90;;;4.33;;
11238;SDS011;5677;48.488;13.436;2024-03-06T11:19:27;5.07;;;3.70;;
11238;SDS011;5677;48.488;13.436;2024-03-06T11:21:54;6.13;;;4.57;;
11238;SDS011;5677;48.488;13.436;2024-03-06T11:24:21;4.83;;;4.20;;
11238;SDS011;5677;48.488;13.436;2024-03-06T11:26:56;5.67;;;4.33;;
11238;SDS011;5677;48.488;13.436;2024-03-06T11:29:26;5.33;;;3.90;;
11238;SDS011;5677;48.488;13.436;2024-03-06T11:31:57;5.07;;;4.17;;
11238;SDS011;5677;48.488;13.436;2024-03-06T11:34:25;5.30;;;4.13;;
11238;SDS011;5677;48.488;13.436;2024-03-06T11:36:53;5.33;;;4.03;;
11238;SDS011;5677;48.488;13.436;2024-03-06T11:39:22;5.77;;;3.90;;
11238;SDS011;5677;48.488;13.436;2024-03-06T11:41:49;5.10;;;4.00;;
11238;SDS011;5677;48.488;13.436;2024-03-06T11:44:18;5.53;;;3.87;;
11238;SDS011;5677;48.488;13.436;2024-03-06T11:46:47;6.70;;;3.97;;
11238;SDS011;5677;48.488;13.436;2024-03-06T11:49:15;5.53;;;4.03;;
11238;SDS011;5677;48.488;13.436;2024-03-06T11:51:43;5.30;;;4.07;;
11238;SDS011;5677;48.488;13.436;2024-03-06T11:54:11;4.63;;;4.17;;
11238;SDS011;5677;48.488;13.436;2024-03-06T11:56:38;7.03;;;4.40;;
11238;SDS011;5677;48.488;13.436;2024-03-06T11:59:05;5.07;;;3.87;;
11238;SDS011;5677;48.488;13.436;2024-03-06T12:01:34;4.53;;;3.70;;
11238;SDS011;5677;48.488;13.436;2024-03-06T12:04:01;5.30;;;3.90;;
11238;SDS011;5677;48.488;13.436;2024-03-06T12:06:29;5.77;;;4.03;;
11238;SDS011;5677;48.488;13.436;2024-03-06T12:08:56;4.90;;;4.03;;
11238;SDS011;5677;48.488;13.436;2024-03-06T12:11:24;5.83;;;4.23;;
11238;SDS011;5677;48.488;13.436;2024-03-06T12:13:53;6.13;;;3.93;;
11238;SDS011;5677;48.488;13.436;2024-03-06T12:16:20;5.90;;;4.07;;
11238;SDS011;5677;48.488;13.436;2024-03-06T12:18:52;7.00;;;3.73;;
11238;SDS011;5677;48.488;13.436;2024-03-06T12:21:22;7.23;;;4.87;;
11238;SDS011;5677;48.488;13.436;2024-03-06T12:23:49;6.37;;;4.50;;
11238;SDS011;5677;48.488;13.436;2024-03-06T12:26:16;7.40;;;5.10;;
11238;SDS011;5677;48.488;13.436;2024-03-06T12:28:48;6.43;;;4.37;;
11238;SDS011;5677;48.488;13.436;2024-03-06T12:31:15;9.70;;;4.80;;
11238;SDS011;5677;48.488;13.436;2024-03-06T12:33:42;9.43;;;5.17;;
11238;SDS011;5677;48.488;13.436;2024-03-06T12:36:11;10.03;;;6.23;;
11238;SDS011;5677;48.488;13.436;2024-03-06T12:38:37;9.07;;;5.93;;
11238;SDS011;5677;48.488;13.436;2024-03-06T12:41:05;7.00;;;5.47;;
11238;SDS011;5677;48.488;13.436;2024-03-06T12:43:32;7.23;;;5.60;;
11238;SDS011;5677;48.488;13.436;2024-03-06T12:45:59;7.93;;;5.13;;
11238;SDS011;5677;48.488;13.436;2024-03-06T12:48:27;7.47;;;5.17;;
11238;SDS011;5677;48.488;13.436;2024-03-06T12:50:55;7.77;;;5.43;;
11238;SDS011;5677;48.488;13.436;2024-03-06T12:53:31;7.40;;;5.07;;
11238;SDS011;5677;48.488;13.436;2024-03-06T12:55:58;9.33;;;5.67;;
11238;SDS011;5677;48.488;13.436;2024-03-06T12:58:24;7.87;;;5.70;;
11238;SDS011;5677;48.488;13.436;2024-03-06T13:00:51;7.80;;;5.27;;
11238;SDS011;5677;48.488;13.436;2024-03-06T13:03:19;13.07;;;8.43;;
11238;SDS011;5677;48.488;13.436;2024-03-06T13:05:45;15.83;;;9.70;;
11238;SDS011;5677;48.488;13.436;2024-03-06T13:08:12;16.27;;;10.97;;
11238;SDS011;5677;48.488;13.436;2024-03-06T13:10:41;15.47;;;10.80;;
11238;SDS011;5677;48.488;13.436;2024-03-06T13:13:08;15.70;;;11.53;;
11238;SDS011;5677;48.488;13.436;2024-03-06T13:15:35;18.30;;;11.33;;
11238;SDS011;5677;48.488;13.436;2024-03-06T13:18:02;15.33;;;10.70;;
11238;SDS011;5677;48.488;13.436;2024-03-06T13:20:30;16.60;;;11.93;;
11238;SDS011;5677;48.488;13.436;2024-03-06T13:22:56;18.63;;;12.27;;
11238;SDS011;5677;48.488;13.436;2024-03-06T13:25:23;17.63;;;12.20;;
11238;SDS011;5677;48.488;13.436;2024-03-06T13:27:51;16.93;;;11.97;;
11238;SDS011;5677;48.488;13.436;2024-03-06T13:30:19;16.63;;;10.90;;
11238;SDS011;5677;48.488;13.436;2024-03-06T13:32:46;16.17;;;9.93;;
11238;SDS011;5677;48.488;13.436;2024-03-06T13:35:13;17.20;;;9.90;;
11238;SDS011;5677;48.488;13.436;2024-03-06T13:37:40;13.40;;;9.40;;
11238;SDS011;5677;48.488;13.436;2024-03-06T13:40:07;15.13;;;9.27;;
11238;SDS011;5677;48.488;13.436;2024-03-06T13:42:35;14.90;;;9.53;;
11238;SDS011;5677;48.488;13.436;2024-03-06T13:45:04;13.07;;;8.67;;
11238;SDS011;5677;48.488;13.436;2024-03-06T13:47:36;11.47;;;8.27;;
11238;SDS011;5677;48.488;13.436;2024-03-06T13:50:03;13.50;;;8.50;;
11238;SDS011;5677;48.488;13.436;2024-03-06T13:52:33;15.30;;;9.47;;
11238;SDS011;5677;48.488;13.436;2024-03-06T13:55:00;15.33;;;9.27;;
11238;SDS011;5677;48.488;13.436;2024-03-06T13:57:29;14.57;;;9.27;;
11238;SDS011;5677;48.488;13.436;2024-03-06T13:59:58;13.10;;;8.77;;
11238;SDS011;5677;48.488;13.436;2024-03-06T14:02:26;11.90;;;8.47;;
11238;SDS011;5677;48.488;13.436;2024-03-06T14:04:53;13.17;;;8.60;;
11238;SDS011;5677;48.488;13.436;2024-03-06T14:07:20;13.60;;;9.27;;
11238;SDS011;5677;48.488;13.436;2024-03-06T14:09:46;12.53;;;8.10;;
11238;SDS011;5677;48.488;13.436;2024-03-06T14:12:14;9.13;;;6.70;;
11238;SDS011;5677;48.488;13.436;2024-03-06T14:14:41;9.77;;;6.57;;
11238;SDS011;5677;48.488;13.436;2024-03-06T14:17:07;16.77;;;10.60;;
11238;SDS011;5677;48.488;13.436;2024-03-06T14:19:35;12.80;;;8.80;;
11238;SDS011;5677;48.488;13.436;2024-03-06T14:22:04;10.20;;;7.20;;
11238;SDS011;5677;48.488;13.436;2024-03-06T14:24:31;11.47;;;7.10;;
11238;SDS011;5677;48.488;13.436;2024-03-06T14:26:58;10.73;;;7.40;;
11238;SDS011;5677;48.488;13.436;2024-03-06T14:29:24;10.67;;;7.73;;
11238;SDS011;5677;48.488;13.436;2024-03-06T14:31:52;16.63;;;9.73;;
11238;SDS011;5677;48.488;13.436;2024-03-06T14:34:19;15.23;;;10.43;;
11238;SDS011;5677;48.488;13.436;2024-03-06T14:36:49;17.43;;;10.77;;
11238;SDS011;5677;48.488;13.436;2024-03-06T14:39:16;14.70;;;9.77;;
11238;SDS011;5677;48.488;13.436;2024-03-06T14:41:43;15.20;;;9.70;;
11238;SDS011;5677;48.488;13.436;2024-03-06T14:44:12;15.53;;;9.87;;
11238;SDS011;5677;48.488;13.436;2024-03-06T14:46:39;16.50;;;11.53;;